sensor_id;sensor_type;location;lat;lon;timestamp;pressure;altitude;pressure_sealevel;temperature;humidity
46007;BME280;31738;50.188;8.524;2023-07-31T00:02:16;98628.19;;;19.29;75.31
46007;BME280;31738;50.188;8.524;2023-07-31T00:04:41;98620.38;;;19.27;75.34
46007;BME280;31738;50.188;8.524;2023-07-31T00:07:07;98628.38;;;19.24;75.67
46007;BME280;31738;50.188;8.524;2023-07-31T00:09:33;98625.19;;;19.22;75.65
46007;BME280;31738;50.188;8.524;2023-07-31T00:11:59;98616.56;;;19.20;75.84
46007;BME280;31738;50.188;8.524;2023-07-31T00:14:24;98618.34;;;19.16;76.56
46007;BME280;31738;50.188;8.524;2023-07-31T00:16:50;98612.78;;;19.12;76.79
46007;BME280;31738;50.188;8.524;2023-07-31T00:19:15;98609.13;;;19.08;77.57
46007;BME280;31738;50.188;8.524;2023-07-31T00:21:40;98607.88;;;19.06;77.43
46007;BME280;31738;50.188;8.524;2023-07-31T00:24:06;98603.56;;;19.05;77.62
46007;BME280;31738;50.188;8.524;2023-07-31T00:26:31;98610.81;;;19.01;77.75
46007;BME280;31738;50.188;8.524;2023-07-31T00:28:57;98604.09;;;18.98;77.89
46007;BME280;31738;50.188;8.524;2023-07-31T00:31:23;98600.59;;;18.98;78.54
46007;BME280;31738;50.188;8.524;2023-07-31T00:33:48;98597.41;;;18.96;79.01
46007;BME280;31738;50.188;8.524;2023-07-31T00:36:14;98597.25;;;18.92;79.38
46007;BME280;31738;50.188;8.524;2023-07-31T00:38:39;98590.56;;;18.90;80.03
46007;BME280;31738;50.188;8.524;2023-07-31T00:41:05;98575.03;;;18.90;80.44
46007;BME280;31738;50.188;8.524;2023-07-31T00:43:31;98576.16;;;18.89;80.50
46007;BME280;31738;50.188;8.524;2023-07-31T00:45:56;98569.47;;;18.87;80.77
46007;BME280;31738;50.188;8.524;2023-07-31T00:48:22;98555.88;;;18.87;81.03
46007;BME280;31738;50.188;8.524;2023-07-31T00:50:48;98563.56;;;18.85;81.17
46007;BME280;31738;50.188;8.524;2023-07-31T00:53:14;98566.28;;;18.85;81.50
46007;BME280;31738;50.188;8.524;2023-07-31T00:55:40;98553.38;;;18.82;81.68
46007;BME280;31738;50.188;8.524;2023-07-31T00:58:05;98556.06;;;18.82;81.97
46007;BME280;31738;50.188;8.524;2023-07-31T01:00:30;98544.72;;;18.80;81.96
46007;BME280;31738;50.188;8.524;2023-07-31T01:02:56;98548.91;;;18.77;82.27
46007;BME280;31738;50.188;8.524;2023-07-31T01:05:33;98540.44;;;18.79;82.40
46007;BME280;31738;50.188;8.524;2023-07-31T01:11:28;98521.81;;;18.68;82.61
46007;BME280;31738;50.188;8.524;2023-07-31T01:13:57;98531.75;;;18.64;83.19
46007;BME280;31738;50.188;8.524;2023-07-31T01:16:23;98527.91;;;18.65;82.81
46007;BME280;31738;50.188;8.524;2023-07-31T01:18:48;98526.78;;;18.66;83.26
46007;BME280;31738;50.188;8.524;2023-07-31T01:23:56;98519.44;;;18.67;83.36
46007;BME280;31738;50.188;8.524;2023-07-31T01:26:33;98517.06;;;18.65;83.41
46007;BME280;31738;50.188;8.524;2023-07-31T01:31:41;98520.06;;;18.64;83.57
46007;BME280;31738;50.188;8.524;2023-07-31T01:34:08;98511.63;;;18.65;83.67
46007;BME280;31738;50.188;8.524;2023-07-31T01:36:35;98510.00;;;18.64;83.82
46007;BME280;31738;50.188;8.524;2023-07-31T01:39:01;98514.63;;;18.64;83.53
46007;BME280;31738;50.188;8.524;2023-07-31T01:41:27;98503.00;;;18.63;83.70
46007;BME280;31738;50.188;8.524;2023-07-31T01:43:53;98504.56;;;18.64;83.79
46007;BME280;31738;50.188;8.524;2023-07-31T01:46:18;98498.66;;;18.62;83.67
46007;BME280;31738;50.188;8.524;2023-07-31T01:48:44;98492.44;;;18.62;83.83
46007;BME280;31738;50.188;8.524;2023-07-31T01:51:09;98487.34;;;18.60;83.99
46007;BME280;31738;50.188;8.524;2023-07-31T01:53:35;98489.59;;;18.58;83.87
46007;BME280;31738;50.188;8.524;2023-07-31T01:56:00;98479.53;;;18.59;83.78
46007;BME280;31738;50.188;8.524;2023-07-31T01:58:26;98484.50;;;18.57;83.99
46007;BME280;31738;50.188;8.524;2023-07-31T02:00:51;98482.59;;;18.57;83.82
46007;BME280;31738;50.188;8.524;2023-07-31T02:03:17;98480.19;;;18.56;83.99
46007;BME280;31738;50.188;8.524;2023-07-31T02:05:46;98486.06;;;18.58;84.19
46007;BME280;31738;50.188;8.524;2023-07-31T02:08:12;98477.81;;;18.54;84.58
46007;BME280;31738;50.188;8.524;2023-07-31T02:11:15;98480.19;;;18.56;84.30
46007;BME280;31738;50.188;8.524;2023-07-31T02:13:40;98481.03;;;18.48;84.52
46007;BME280;31738;50.188;8.524;2023-07-31T02:16:06;98476.75;;;18.47;84.65
46007;BME280;31738;50.188;8.524;2023-07-31T02:18:32;98481.38;;;18.46;84.77
46007;BME280;31738;50.188;8.524;2023-07-31T02:20:57;98474.03;;;18.47;85.07
46007;BME280;31738;50.188;8.524;2023-07-31T02:23:25;98469.38;;;18.47;84.69
46007;BME280;31738;50.188;8.524;2023-07-31T02:25:50;98465.88;;;18.47;84.89
46007;BME280;31738;50.188;8.524;2023-07-31T02:28:15;98472.91;;;18.48;84.67
46007;BME280;31738;50.188;8.524;2023-07-31T02:30:44;98473.69;;;18.48;84.97
46007;BME280;31738;50.188;8.524;2023-07-31T02:33:10;98469.38;;;18.47;84.98
46007;BME280;31738;50.188;8.524;2023-07-31T02:35:36;98473.69;;;18.48;85.19
46007;BME280;31738;50.188;8.524;2023-07-31T02:38:01;98459.66;;;18.46;85.13
46007;BME280;31738;50.188;8.524;2023-07-31T02:40:27;98465.06;;;18.46;85.20
46007;BME280;31738;50.188;8.524;2023-07-31T02:42:52;98466.22;;;18.45;85.57
46007;BME280;31738;50.188;8.524;2023-07-31T02:45:18;98462.69;;;18.45;85.55
46007;BME280;31738;50.188;8.524;2023-07-31T02:47:43;98468.94;;;18.45;85.23
46007;BME280;31738;50.188;8.524;2023-07-31T02:50:09;98466.66;;;18.47;85.65
46007;BME280;31738;50.188;8.524;2023-07-31T02:52:34;98468.59;;;18.47;85.51
46007;BME280;31738;50.188;8.524;2023-07-31T02:55:00;98465.06;;;18.46;85.10
46007;BME280;31738;50.188;8.524;2023-07-31T02:57:25;98463.50;;;18.45;85.31
46007;BME280;31738;50.188;8.524;2023-07-31T02:59:51;98470.50;;;18.46;84.80
46007;BME280;31738;50.188;8.524;2023-07-31T03:02:16;98468.94;;;18.45;84.35
46007;BME280;31738;50.188;8.524;2023-07-31T03:04:42;98464.59;;;18.44;84.64
46007;BME280;31738;50.188;8.524;2023-07-31T03:07:07;98461.44;;;18.42;84.83
46007;BME280;31738;50.188;8.524;2023-07-31T03:09:32;98465.28;;;18.41;85.01
46007;BME280;31738;50.188;8.524;2023-07-31T03:11:58;98454.72;;;18.40;85.00
46007;BME280;31738;50.188;8.524;2023-07-31T03:14:23;98457.00;;;18.38;85.15
46007;BME280;31738;50.188;8.524;2023-07-31T03:16:51;98460.50;;;18.38;85.50
46007;BME280;31738;50.188;8.524;2023-07-31T03:19:17;98464.03;;;18.39;85.24
46007;BME280;31738;50.188;8.524;2023-07-31T03:21:42;98465.94;;;18.38;84.96
46007;BME280;31738;50.188;8.524;2023-07-31T03:24:07;98467.06;;;18.37;85.42
46007;BME280;31738;50.188;8.524;2023-07-31T03:26:33;98470.84;;;18.36;85.39
46007;BME280;31738;50.188;8.524;2023-07-31T03:28:58;98470.41;;;18.34;85.08
46007;BME280;31738;50.188;8.524;2023-07-31T03:31:24;98467.22;;;18.32;84.93
46007;BME280;31738;50.188;8.524;2023-07-31T03:33:49;98463.38;;;18.33;85.26
46007;BME280;31738;50.188;8.524;2023-07-31T03:36:15;98466.75;;;18.30;85.35
46007;BME280;31738;50.188;8.524;2023-07-31T03:38:40;98467.22;;;18.32;85.89
46007;BME280;31738;50.188;8.524;2023-07-31T03:41:06;98462.13;;;18.31;85.51
46007;BME280;31738;50.188;8.524;2023-07-31T03:43:32;98471.06;;;18.31;85.46
46007;BME280;31738;50.188;8.524;2023-07-31T03:46:01;98468.34;;;18.31;85.68
46007;BME280;31738;50.188;8.524;2023-07-31T03:48:26;98468.34;;;18.31;85.52
46007;BME280;31738;50.188;8.524;2023-07-31T03:50:52;98472.19;;;18.30;85.81
46007;BME280;31738;50.188;8.524;2023-07-31T03:53:17;98475.22;;;18.29;85.72
46007;BME280;31738;50.188;8.524;2023-07-31T03:55:42;98464.38;;;18.29;85.67
46007;BME280;31738;50.188;8.524;2023-07-31T03:58:08;98473.78;;;18.31;85.76
46007;BME280;31738;50.188;8.524;2023-07-31T04:00:33;98466.75;;;18.30;85.29
46007;BME280;31738;50.188;8.524;2023-07-31T04:02:59;98459.06;;;18.32;85.57
46007;BME280;31738;50.188;8.524;2023-07-31T04:05:24;98455.22;;;18.33;85.61
46007;BME280;31738;50.188;8.524;2023-07-31T04:07:50;98442.78;;;18.32;85.28
46007;BME280;31738;50.188;8.524;2023-07-31T04:10:15;98449.78;;;18.33;85.45
46007;BME280;31738;50.188;8.524;2023-07-31T04:12:41;98440.53;;;18.34;85.63
46007;BME280;31738;50.188;8.524;2023-07-31T04:15:07;98439.91;;;18.37;85.86
46007;BME280;31738;50.188;8.524;2023-07-31T04:17:32;98437.66;;;18.39;85.49
46007;BME280;31738;50.188;8.524;2023-07-31T04:19:57;98434.94;;;18.39;85.62
46007;BME280;31738;50.188;8.524;2023-07-31T04:22:23;98432.69;;;18.41;85.61
46007;BME280;31738;50.188;8.524;2023-07-31T04:24:48;98432.34;;;18.43;85.28
46007;BME280;31738;50.188;8.524;2023-07-31T04:27:14;98432.34;;;18.43;85.91
46007;BME280;31738;50.188;8.524;2023-07-31T04:29:39;98433.94;;;18.44;85.66
46007;BME280;31738;50.188;8.524;2023-07-31T04:32:08;98428.84;;;18.42;85.68
46007;BME280;31738;50.188;8.524;2023-07-31T04:34:33;98433.94;;;18.44;86.13
46007;BME280;31738;50.188;8.524;2023-07-31T04:36:59;98427.38;;;18.45;85.97
46007;BME280;31738;50.188;8.524;2023-07-31T04:39:24;98419.72;;;18.47;86.04
46007;BME280;31738;50.188;8.524;2023-07-31T04:41:50;98418.72;;;18.51;85.65
46007;BME280;31738;50.188;8.524;2023-07-31T04:44:15;98414.84;;;18.52;85.46
46007;BME280;31738;50.188;8.524;2023-07-31T04:46:40;98418.03;;;18.54;85.78
46007;BME280;31738;50.188;8.524;2023-07-31T04:49:06;98414.19;;;18.55;85.88
46007;BME280;31738;50.188;8.524;2023-07-31T04:51:32;98419.63;;;18.55;85.64
46007;BME280;31738;50.188;8.524;2023-07-31T04:53:57;98421.19;;;18.56;85.57
46007;BME280;31738;50.188;8.524;2023-07-31T04:56:23;98428.25;;;18.57;85.09
46007;BME280;31738;50.188;8.524;2023-07-31T04:58:48;98428.25;;;18.57;85.50
46007;BME280;31738;50.188;8.524;2023-07-31T05:01:13;98426.63;;;18.56;85.55
46007;BME280;31738;50.188;8.524;2023-07-31T05:03:39;98429.03;;;18.58;85.35
46007;BME280;31738;50.188;8.524;2023-07-31T05:06:04;98431.88;;;18.61;85.50
46007;BME280;31738;50.188;8.524;2023-07-31T05:08:30;98421.47;;;18.63;85.62
46007;BME280;31738;50.188;8.524;2023-07-31T05:10:55;98423.06;;;18.64;85.27
46007;BME280;31738;50.188;8.524;2023-07-31T05:13:20;98426.25;;;18.66;85.42
46007;BME280;31738;50.188;8.524;2023-07-31T05:15:46;98425.56;;;18.69;85.22
46007;BME280;31738;50.188;8.524;2023-07-31T05:18:11;98430.69;;;18.71;85.27
46007;BME280;31738;50.188;8.524;2023-07-31T05:20:37;98437.34;;;18.73;85.50
46007;BME280;31738;50.188;8.524;2023-07-31T05:23:02;98430.47;;;18.76;85.21
46007;BME280;31738;50.188;8.524;2023-07-31T05:25:28;98443.41;;;18.79;85.16
46007;BME280;31738;50.188;8.524;2023-07-31T05:27:53;98434.09;;;18.80;84.77
46007;BME280;31738;50.188;8.524;2023-07-31T05:30:19;98429.81;;;18.79;84.78
46007;BME280;31738;50.188;8.524;2023-07-31T05:32:44;98434.91;;;18.81;84.93
46007;BME280;31738;50.188;8.524;2023-07-31T05:35:10;98436.81;;;18.80;84.64
46007;BME280;31738;50.188;8.524;2023-07-31T05:37:35;98435.25;;;18.79;84.04
46007;BME280;31738;50.188;8.524;2023-07-31T05:40:01;98433.63;;;18.78;84.40
46007;BME280;31738;50.188;8.524;2023-07-31T05:42:26;98432.88;;;18.78;83.83
46007;BME280;31738;50.188;8.524;2023-07-31T05:44:52;98437.50;;;18.77;84.36
46007;BME280;31738;50.188;8.524;2023-07-31T05:47:17;98438.31;;;18.78;84.13
46007;BME280;31738;50.188;8.524;2023-07-31T05:49:43;98426.63;;;18.77;84.14
46007;BME280;31738;50.188;8.524;2023-07-31T05:52:09;98442.13;;;18.77;83.45
46007;BME280;31738;50.188;8.524;2023-07-31T05:54:35;98436.34;;;18.78;83.37
46007;BME280;31738;50.188;8.524;2023-07-31T05:57:00;98442.25;;;18.80;83.21
46007;BME280;31738;50.188;8.524;2023-07-31T05:59:26;98432.97;;;18.81;82.92
46007;BME280;31738;50.188;8.524;2023-07-31T06:01:51;98431.53;;;18.84;82.96
46007;BME280;31738;50.188;8.524;2023-07-31T06:04:17;98434.69;;;18.86;82.67
46007;BME280;31738;50.188;8.524;2023-07-31T06:06:42;98434.69;;;18.86;82.04
46007;BME280;31738;50.188;8.524;2023-07-31T06:09:08;98433.09;;;18.85;82.02
46007;BME280;31738;50.188;8.524;2023-07-31T06:11:33;98430.38;;;18.85;81.98
46007;BME280;31738;50.188;8.524;2023-07-31T06:13:58;98430.84;;;18.87;81.74
46007;BME280;31738;50.188;8.524;2023-07-31T06:16:24;98435.63;;;18.90;81.63
46007;BME280;31738;50.188;8.524;2023-07-31T06:18:50;98433.69;;;18.90;81.64
46007;BME280;31738;50.188;8.524;2023-07-31T06:21:16;98438.78;;;18.92;81.38
46007;BME280;31738;50.188;8.524;2023-07-31T06:23:42;98445.81;;;18.93;81.50
46007;BME280;31738;50.188;8.524;2023-07-31T06:26:08;98443.56;;;18.95;81.68
46007;BME280;31738;50.188;8.524;2023-07-31T06:28:33;98442.78;;;18.94;81.26
46007;BME280;31738;50.188;8.524;2023-07-31T06:30:59;98448.34;;;18.98;81.43
46007;BME280;31738;50.188;8.524;2023-07-31T06:33:24;98448.44;;;19.01;81.20
46007;BME280;31738;50.188;8.524;2023-07-31T06:35:50;98449.25;;;19.02;81.14
46007;BME280;31738;50.188;8.524;2023-07-31T06:38:15;98456.28;;;19.03;80.98
46007;BME280;31738;50.188;8.524;2023-07-31T06:40:41;98447.00;;;19.04;81.46
46007;BME280;31738;50.188;8.524;2023-07-31T06:43:06;98455.50;;;19.02;81.24
46007;BME280;31738;50.188;8.524;2023-07-31T06:45:35;98444.63;;;19.02;81.62
46007;BME280;31738;50.188;8.524;2023-07-31T06:48:01;98442.34;;;19.04;81.28
46007;BME280;31738;50.188;8.524;2023-07-31T06:50:31;98444.72;;;19.06;81.44
46007;BME280;31738;50.188;8.524;2023-07-31T06:52:56;98448.59;;;19.05;81.51
46007;BME280;31738;50.188;8.524;2023-07-31T06:55:23;98440.09;;;19.06;81.39
46007;BME280;31738;50.188;8.524;2023-07-31T06:57:49;98445.66;;;19.10;81.47
46007;BME280;31738;50.188;8.524;2023-07-31T07:00:16;98447.72;;;19.13;81.23
46007;BME280;31738;50.188;8.524;2023-07-31T07:02:41;98452.13;;;19.17;80.61
46007;BME280;31738;50.188;8.524;2023-07-31T07:05:07;98459.28;;;19.22;81.04
46007;BME280;31738;50.188;8.524;2023-07-31T07:07:34;98453.19;;;19.25;81.04
46007;BME280;31738;50.188;8.524;2023-07-31T07:09:59;98444.94;;;19.33;80.71
46007;BME280;31738;50.188;8.524;2023-07-31T07:12:26;98431.69;;;19.44;80.63
46007;BME280;31738;50.188;8.524;2023-07-31T07:14:51;98440.91;;;19.51;80.29
46007;BME280;31738;50.188;8.524;2023-07-31T07:17:18;98423.22;;;19.57;80.40
46007;BME280;31738;50.188;8.524;2023-07-31T07:19:44;98428.44;;;19.62;80.04
46007;BME280;31738;50.188;8.524;2023-07-31T07:22:11;98424.25;;;19.65;79.66
46007;BME280;31738;50.188;8.524;2023-07-31T07:24:37;98422.75;;;19.67;79.97
46007;BME280;31738;50.188;8.524;2023-07-31T07:27:03;98414.25;;;19.69;80.11
46007;BME280;31738;50.188;8.524;2023-07-31T07:29:28;98414.03;;;19.74;80.44
46007;BME280;31738;50.188;8.524;2023-07-31T07:31:54;98414.03;;;19.74;79.57
46007;BME280;31738;50.188;8.524;2023-07-31T07:34:19;98421.06;;;19.75;79.21
46007;BME280;31738;50.188;8.524;2023-07-31T07:36:45;98418.81;;;19.77;79.03
46007;BME280;31738;50.188;8.524;2023-07-31T07:39:10;98414.25;;;19.81;79.06
46007;BME280;31738;50.188;8.524;2023-07-31T07:41:36;98420.28;;;19.86;78.89
46007;BME280;31738;50.188;8.524;2023-07-31T07:44:02;98429.00;;;19.92;78.88
46007;BME280;31738;50.188;8.524;2023-07-31T07:46:27;98418.31;;;19.99;78.61
46007;BME280;31738;50.188;8.524;2023-07-31T07:48:53;98417.75;;;20.05;78.54
46007;BME280;31738;50.188;8.524;2023-07-31T07:51:18;98420.41;;;20.14;77.91
46007;BME280;31738;50.188;8.524;2023-07-31T07:53:44;98426.72;;;20.18;78.25
46007;BME280;31738;50.188;8.524;2023-07-31T07:56:09;98423.53;;;20.16;77.76
46007;BME280;31738;50.188;8.524;2023-07-31T07:58:35;98432.06;;;20.14;77.84
46007;BME280;31738;50.188;8.524;2023-07-31T08:01:00;98435.13;;;20.13;77.62
46007;BME280;31738;50.188;8.524;2023-07-31T08:03:26;98426.97;;;20.13;78.08
46007;BME280;31738;50.188;8.524;2023-07-31T08:05:51;98428.06;;;20.12;77.95
46007;BME280;31738;50.188;8.524;2023-07-31T08:08:17;98416.53;;;20.15;78.27
46007;BME280;31738;50.188;8.524;2023-07-31T08:10:43;98415.16;;;20.21;78.01
46007;BME280;31738;50.188;8.524;2023-07-31T08:13:10;98424.66;;;20.27;77.97
46007;BME280;31738;50.188;8.524;2023-07-31T08:15:36;98431.13;;;20.34;77.69
46007;BME280;31738;50.188;8.524;2023-07-31T08:18:01;98412.34;;;20.45;77.35
46007;BME280;31738;50.188;8.524;2023-07-31T08:20:27;98417.44;;;20.59;76.99
46007;BME280;31738;50.188;8.524;2023-07-31T08:22:52;98409.56;;;20.69;76.30
46007;BME280;31738;50.188;8.524;2023-07-31T08:25:18;98406.78;;;20.81;76.04
46007;BME280;31738;50.188;8.524;2023-07-31T08:27:44;98416.75;;;20.89;75.60
46007;BME280;31738;50.188;8.524;2023-07-31T08:30:11;98411.16;;;20.98;74.94
46007;BME280;31738;50.188;8.524;2023-07-31T08:32:36;98423.63;;;20.99;74.64
46007;BME280;31738;50.188;8.524;2023-07-31T08:35:02;98432.28;;;21.01;74.35
46007;BME280;31738;50.188;8.524;2023-07-31T08:37:28;98432.63;;;20.99;73.80
46007;BME280;31738;50.188;8.524;2023-07-31T08:39:53;98430.59;;;20.96;73.92
46007;BME280;31738;50.188;8.524;2023-07-31T08:42:20;98436.06;;;20.96;72.68
46007;BME280;31738;50.188;8.524;2023-07-31T08:44:46;98443.44;;;20.96;73.28
46007;BME280;31738;50.188;8.524;2023-07-31T08:47:12;98443.75;;;20.94;73.06
46007;BME280;31738;50.188;8.524;2023-07-31T08:49:39;98443.75;;;20.94;73.46
46007;BME280;31738;50.188;8.524;2023-07-31T08:52:06;98442.16;;;20.93;73.16
46007;BME280;31738;50.188;8.524;2023-07-31T08:54:31;98442.97;;;20.94;73.26
46007;BME280;31738;50.188;8.524;2023-07-31T08:56:58;98443.88;;;20.98;72.94
46007;BME280;31738;50.188;8.524;2023-07-31T08:59:27;98444.06;;;21.05;72.60
46007;BME280;31738;50.188;8.524;2023-07-31T09:01:55;98447.34;;;21.10;72.68
46007;BME280;31738;50.188;8.524;2023-07-31T09:04:22;98435.84;;;21.17;72.68
46007;BME280;31738;50.188;8.524;2023-07-31T09:06:48;98431.72;;;21.23;73.15
46007;BME280;31738;50.188;8.524;2023-07-31T09:09:14;98436.47;;;21.26;72.79
46007;BME280;31738;50.188;8.524;2023-07-31T09:11:40;98431.44;;;21.28;72.31
46007;BME280;31738;50.188;8.524;2023-07-31T09:14:05;98434.63;;;21.30;72.82
46007;BME280;31738;50.188;8.524;2023-07-31T09:16:34;98425.97;;;21.28;73.01
46007;BME280;31738;50.188;8.524;2023-07-31T09:19:00;98419.28;;;21.25;73.22
46007;BME280;31738;50.188;8.524;2023-07-31T09:21:27;98409.53;;;21.24;73.14
46007;BME280;31738;50.188;8.524;2023-07-31T09:23:54;98404.94;;;21.28;74.11
46007;BME280;31738;50.188;8.524;2023-07-31T09:26:36;98406.38;;;21.38;74.22
46007;BME280;31738;50.188;8.524;2023-07-31T09:29:05;98403.09;;;21.32;74.92
46007;BME280;31738;50.188;8.524;2023-07-31T09:31:41;98400.38;;;21.32;75.53
46007;BME280;31738;50.188;8.524;2023-07-31T09:34:07;98407.31;;;21.30;76.13
46007;BME280;31738;50.188;8.524;2023-07-31T09:36:39;98405.81;;;21.32;76.73
46007;BME280;31738;50.188;8.524;2023-07-31T09:39:05;98393.16;;;21.24;76.95
46007;BME280;31738;50.188;8.524;2023-07-31T09:41:37;98393.88;;;21.21;77.41
46007;BME280;31738;50.188;8.524;2023-07-31T09:44:03;98380.66;;;21.23;77.98
46007;BME280;31738;50.188;8.524;2023-07-31T09:46:29;98382.41;;;21.31;78.08
46007;BME280;31738;50.188;8.524;2023-07-31T09:49:06;98376.72;;;21.36;78.06
46007;BME280;31738;50.188;8.524;2023-07-31T09:51:32;98364.88;;;21.32;78.34
46007;BME280;31738;50.188;8.524;2023-07-31T09:54:03;98361.81;;;21.34;77.85
46007;BME280;31738;50.188;8.524;2023-07-31T09:56:31;98350.56;;;21.35;77.73
46007;BME280;31738;50.188;8.524;2023-07-31T09:58:57;98344.41;;;21.38;78.06
46007;BME280;31738;50.188;8.524;2023-07-31T10:01:23;98347.66;;;21.44;78.21
46007;BME280;31738;50.188;8.524;2023-07-31T10:03:48;98338.84;;;21.50;77.68
46007;BME280;31738;50.188;8.524;2023-07-31T10:06:16;98334.84;;;21.63;77.56
46007;BME280;31738;50.188;8.524;2023-07-31T10:08:45;98334.22;;;21.70;77.59
46007;BME280;31738;50.188;8.524;2023-07-31T10:11:12;98335.22;;;21.77;77.07
46007;BME280;31738;50.188;8.524;2023-07-31T10:13:41;98339.25;;;21.83;76.19
46007;BME280;31738;50.188;8.524;2023-07-31T10:16:07;98338.53;;;21.86;76.16
46007;BME280;31738;50.188;8.524;2023-07-31T10:18:33;98336.69;;;21.90;75.64
46007;BME280;31738;50.188;8.524;2023-07-31T10:21:00;98343.00;;;21.94;75.38
46007;BME280;31738;50.188;8.524;2023-07-31T10:23:26;98342.22;;;21.94;74.05
46007;BME280;31738;50.188;8.524;2023-07-31T10:25:53;98342.56;;;21.92;73.60
46007;BME280;31738;50.188;8.524;2023-07-31T10:28:20;98337.09;;;21.92;74.20
46007;BME280;31738;50.188;8.524;2023-07-31T10:30:46;98341.06;;;21.95;72.38
46007;BME280;31738;50.188;8.524;2023-07-31T10:33:11;98342.03;;;22.03;72.95
46007;BME280;31738;50.188;8.524;2023-07-31T10:35:37;98335.91;;;22.09;72.93
46007;BME280;31738;50.188;8.524;2023-07-31T10:38:10;98341.53;;;22.16;72.11
46007;BME280;31738;50.188;8.524;2023-07-31T10:40:37;98347.34;;;22.15;72.63
46007;BME280;31738;50.188;8.524;2023-07-31T10:43:03;98355.91;;;22.13;72.01
46007;BME280;31738;50.188;8.524;2023-07-31T10:45:33;98360.13;;;22.11;71.15
46007;BME280;31738;50.188;8.524;2023-07-31T10:48:28;98351.94;;;22.11;71.51
46007;BME280;31738;50.188;8.524;2023-07-31T10:50:58;98344.31;;;22.01;72.17
46007;BME280;31738;50.188;8.524;2023-07-31T10:53:30;98359.97;;;22.04;70.76
46007;BME280;31738;50.188;8.524;2023-07-31T10:56:04;98347.63;;;22.10;70.53
46007;BME280;31738;50.188;8.524;2023-07-31T10:58:30;98350.78;;;22.12;70.72
46007;BME280;31738;50.188;8.524;2023-07-31T11:00:59;98346.34;;;22.23;70.73
46007;BME280;31738;50.188;8.524;2023-07-31T11:03:26;98345.78;;;22.33;70.15
46007;BME280;31738;50.188;8.524;2023-07-31T11:08:24;98350.81;;;22.50;68.05
46007;BME280;31738;50.188;8.524;2023-07-31T11:11:06;98360.69;;;22.54;66.84
46007;BME280;31738;50.188;8.524;2023-07-31T11:13:45;98372.78;;;22.53;67.23
46007;BME280;31738;50.188;8.524;2023-07-31T11:16:14;98372.00;;;22.53;65.78
46007;BME280;31738;50.188;8.524;2023-07-31T11:18:41;98379.41;;;22.52;65.67
46007;BME280;31738;50.188;8.524;2023-07-31T11:21:07;98375.16;;;22.55;64.92
46007;BME280;31738;50.188;8.524;2023-07-31T11:23:33;98370.69;;;22.66;64.72
46007;BME280;31738;50.188;8.524;2023-07-31T11:25:59;98370.09;;;22.76;64.96
46007;BME280;31738;50.188;8.524;2023-07-31T11:28:25;98384.22;;;22.78;63.87
46007;BME280;31738;50.188;8.524;2023-07-31T11:30:50;98375.69;;;22.83;63.63
46007;BME280;31738;50.188;8.524;2023-07-31T11:33:16;98376.50;;;22.83;63.23
46007;BME280;31738;50.188;8.524;2023-07-31T11:35:46;98390.09;;;22.80;62.84
46007;BME280;31738;50.188;8.524;2023-07-31T11:38:25;98385.06;;;22.82;63.16
46007;BME280;31738;50.188;8.524;2023-07-31T11:40:57;98388.97;;;22.81;63.04
46007;BME280;31738;50.188;8.524;2023-07-31T11:43:23;98376.50;;;22.83;63.84
46007;BME280;31738;50.188;8.524;2023-07-31T11:45:50;98389.09;;;22.88;63.76
46007;BME280;31738;50.188;8.524;2023-07-31T11:48:24;98372.78;;;22.95;64.40
46007;BME280;31738;50.188;8.524;2023-07-31T11:50:53;98373.75;;;23.02;64.03
46007;BME280;31738;50.188;8.524;2023-07-31T11:53:24;98370.03;;;23.14;63.27
46007;BME280;31738;50.188;8.524;2023-07-31T11:55:51;98374.78;;;23.17;62.90
46007;BME280;31738;50.188;8.524;2023-07-31T11:58:17;98376.31;;;23.14;61.57
46007;BME280;31738;50.188;8.524;2023-07-31T12:00:43;98380.13;;;23.10;61.49
46007;BME280;31738;50.188;8.524;2023-07-31T12:03:10;98380.13;;;23.10;61.50
46007;BME280;31738;50.188;8.524;2023-07-31T12:05:37;98374.66;;;23.10;62.54
46007;BME280;31738;50.188;8.524;2023-07-31T12:08:09;98371.19;;;23.13;62.17
46007;BME280;31738;50.188;8.524;2023-07-31T12:10:35;98372.34;;;23.12;61.85
46007;BME280;31738;50.188;8.524;2023-07-31T12:13:06;98368.13;;;23.18;61.67
46007;BME280;31738;50.188;8.524;2023-07-31T12:15:44;98362.47;;;23.26;60.96
46007;BME280;31738;50.188;8.524;2023-07-31T12:18:15;98361.66;;;23.26;61.21
46007;BME280;31738;50.188;8.524;2023-07-31T12:20:45;98359.38;;;23.28;61.55
46007;BME280;31738;50.188;8.524;2023-07-31T12:23:19;98350.84;;;23.33;61.21
46007;BME280;31738;50.188;8.524;2023-07-31T12:28:39;98360.00;;;23.21;61.05
46007;BME280;31738;50.188;8.524;2023-07-31T12:31:07;98365.41;;;23.18;60.35
46007;BME280;31738;50.188;8.524;2023-07-31T12:33:34;98358.78;;;23.19;60.95
46007;BME280;31738;50.188;8.524;2023-07-31T12:36:02;98361.94;;;23.21;61.10
46007;BME280;31738;50.188;8.524;2023-07-31T12:38:29;98342.94;;;23.28;60.73
46007;BME280;31738;50.188;8.524;2023-07-31T12:40:55;98336.84;;;23.38;61.32
46007;BME280;31738;50.188;8.524;2023-07-31T12:43:20;98338.97;;;23.48;60.67
46007;BME280;31738;50.188;8.524;2023-07-31T12:45:46;98324.63;;;23.58;60.36
46007;BME280;31738;50.188;8.524;2023-07-31T12:48:12;98334.25;;;23.71;60.63
46007;BME280;31738;50.188;8.524;2023-07-31T12:50:38;98328.53;;;23.83;59.26
46007;BME280;31738;50.188;8.524;2023-07-31T12:53:05;98316.66;;;23.98;59.39
46007;BME280;31738;50.188;8.524;2023-07-31T12:55:30;98316.78;;;24.09;59.18
46007;BME280;31738;50.188;8.524;2023-07-31T12:57:56;98313.78;;;24.17;58.73
46007;BME280;31738;50.188;8.524;2023-07-31T13:00:22;98309.94;;;24.25;58.79
46007;BME280;31738;50.188;8.524;2023-07-31T13:02:47;98308.81;;;24.30;58.53
46007;BME280;31738;50.188;8.524;2023-07-31T13:05:13;98307.63;;;24.27;58.29
46007;BME280;31738;50.188;8.524;2023-07-31T13:07:39;98309.94;;;24.25;58.45
46007;BME280;31738;50.188;8.524;2023-07-31T13:10:06;98317.78;;;24.23;58.20
46007;BME280;31738;50.188;8.524;2023-07-31T13:12:32;98316.53;;;24.21;57.59